createdAt,value
2023-02-02T00:00:17.098Z,6.20
2023-02-02T00:02:43.775Z,6.20
2023-02-02T00:05:11.167Z,6.30
2023-02-02T00:07:37.795Z,6.30
2023-02-02T00:10:04.801Z,6.30
2023-02-02T00:12:31.470Z,6.30
2023-02-02T00:14:58.272Z,6.30
2023-02-02T00:17:25.028Z,6.30
2023-02-02T00:19:51.991Z,6.30
2023-02-02T00:22:18.698Z,6.30
2023-02-02T00:24:45.562Z,6.20
2023-02-02T00:27:12.238Z,6.20
2023-02-02T00:29:39.777Z,6.20
2023-02-02T00:32:06.419Z,6.10
2023-02-02T00:34:33.879Z,6.10
2023-02-02T00:37:00.731Z,6.10
2023-02-02T00:39:29.529Z,6.10
2023-02-02T00:41:56.448Z,6.10
2023-02-02T00:44:41.947Z,6.10
2023-02-02T00:47:08.543Z,6.10
2023-02-02T00:49:35.200Z,6.10
2023-02-02T00:52:01.894Z,6.10
2023-02-02T00:54:28.559Z,6.10
2023-02-02T00:56:55.229Z,6.00
2023-02-02T00:59:21.970Z,6.00
2023-02-02T01:01:48.683Z,6.00
2023-02-02T01:04:15.435Z,6.00
2023-02-02T01:06:42.372Z,6.00
2023-02-02T01:09:09.318Z,6.00
2023-02-02T01:11:36.394Z,6.00
2023-02-02T01:14:03.106Z,6.10
2023-02-02T01:16:30.124Z,6.10
2023-02-02T01:18:56.885Z,6.10
2023-02-02T01:21:23.677Z,6.10
2023-02-02T01:23:50.718Z,6.20
2023-02-02T01:26:17.569Z,6.20
2023-02-02T01:28:44.384Z,6.20
2023-02-02T01:31:13.866Z,6.20
2023-02-02T01:33:40.781Z,6.20
2023-02-02T01:36:09.915Z,6.20
2023-02-02T01:38:36.978Z,6.20
2023-02-02T01:41:07.081Z,6.20
2023-02-02T01:43:43.135Z,6.20
2023-02-02T01:46:14.155Z,6.20
2023-02-02T01:48:42.952Z,6.20
2023-02-02T01:51:11.309Z,6.20
2023-02-02T01:53:38.084Z,6.20
2023-02-02T01:56:06.001Z,6.20
2023-02-02T01:58:34.928Z,6.20
2023-02-02T02:01:01.662Z,6.20
2023-02-02T02:03:32.060Z,6.30
2023-02-02T02:06:01.560Z,6.20
2023-02-02T02:08:39.703Z,6.30
2023-02-02T02:11:06.996Z,6.30
2023-02-02T02:13:55.450Z,6.30
2023-02-02T02:16:34.411Z,6.30
2023-02-02T02:19:14.680Z,6.30
2023-02-02T02:22:06.647Z,6.30
2023-02-02T02:25:01.683Z,6.30
2023-02-02T02:27:43.788Z,6.20
2023-02-02T02:30:37.165Z,6.20
2023-02-02T02:33:08.042Z,6.20
2023-02-02T02:35:41.257Z,6.20
2023-02-02T02:38:16.481Z,6.30
2023-02-02T02:40:47.856Z,6.30
2023-02-02T02:43:33.574Z,6.30
2023-02-02T02:46:00.651Z,6.30
2023-02-02T02:48:28.851Z,6.20
2023-02-02T02:51:05.467Z,6.20
2023-02-02T02:53:33.550Z,6.20
2023-02-02T02:56:14.613Z,6.30
2023-02-02T02:58:48.838Z,6.30
2023-02-02T03:01:18.926Z,6.30
2023-02-02T03:03:45.534Z,6.30
2023-02-02T03:06:21.228Z,6.30
2023-02-02T03:08:50.324Z,6.30
2023-02-02T03:11:17.157Z,6.30
2023-02-02T03:13:44.295Z,6.30
2023-02-02T03:16:11.369Z,6.40
2023-02-02T03:18:38.576Z,6.40
2023-02-02T03:21:05.282Z,6.40
2023-02-02T03:23:32.038Z,6.40
2023-02-02T03:25:59.568Z,6.40
2023-02-02T03:28:27.441Z,6.50
2023-02-02T03:30:54.851Z,6.50
2023-02-02T03:33:21.661Z,6.50
2023-02-02T03:35:48.386Z,6.50
2023-02-02T03:38:15.061Z,6.60
2023-02-02T03:40:41.653Z,6.60
2023-02-02T03:43:08.317Z,6.60
2023-02-02T03:45:40.646Z,6.60
2023-02-02T03:48:07.338Z,6.60
2023-02-02T03:50:34.001Z,6.60
2023-02-02T03:53:00.746Z,6.60
2023-02-02T03:55:27.471Z,6.60
2023-02-02T03:57:54.201Z,6.60
2023-02-02T04:00:21.270Z,6.70
2023-02-02T04:02:47.978Z,6.70
2023-02-02T04:05:14.692Z,6.70
2023-02-02T04:07:41.429Z,6.70
2023-02-02T04:10:08.580Z,6.70
2023-02-02T04:12:35.291Z,6.70
2023-02-02T04:15:01.982Z,6.70
2023-02-02T04:17:28.608Z,6.70
2023-02-02T04:19:58.128Z,6.70
2023-02-02T04:22:25.760Z,6.70
2023-02-02T04:24:52.523Z,6.70
2023-02-02T04:27:19.686Z,6.70
2023-02-02T04:29:46.321Z,6.70
2023-02-02T04:32:14.833Z,6.70
2023-02-02T04:34:41.728Z,6.80
2023-02-02T04:37:08.619Z,6.70
2023-02-02T04:39:35.242Z,6.80
2023-02-02T04:42:02.686Z,6.80
2023-02-02T04:44:29.336Z,6.80
2023-02-02T04:46:56.019Z,6.70
2023-02-02T04:49:22.721Z,6.70
2023-02-02T04:51:50.401Z,6.70
2023-02-02T04:54:17.061Z,6.70
2023-02-02T04:56:43.864Z,6.70
2023-02-02T04:59:10.599Z,6.70
2023-02-02T05:01:37.247Z,6.70
2023-02-02T05:04:04.059Z,6.70
2023-02-02T05:06:31.089Z,6.70
2023-02-02T05:08:57.681Z,6.70
2023-02-02T05:11:24.491Z,6.60
2023-02-02T05:13:52.622Z,6.70
2023-02-02T05:16:20.083Z,6.60
2023-02-02T05:18:51.209Z,6.60
2023-02-02T05:21:18.202Z,6.60
2023-02-02T05:23:45.066Z,6.60
2023-02-02T05:26:15.447Z,6.70
2023-02-02T05:28:42.821Z,6.60
2023-02-02T05:31:09.767Z,6.70
2023-02-02T05:33:36.786Z,6.70
2023-02-02T05:36:03.591Z,6.60
2023-02-02T05:38:30.251Z,6.60
2023-02-02T05:40:57.209Z,6.60
2023-02-02T05:43:27.859Z,6.60
2023-02-02T05:45:54.576Z,6.60
2023-02-02T05:48:21.254Z,6.60
2023-02-02T05:50:50.115Z,6.60
2023-02-02T05:53:16.821Z,6.60
2023-02-02T05:55:43.521Z,6.60
2023-02-02T05:58:10.271Z,6.60
2023-02-02T06:00:36.873Z,6.60
2023-02-02T06:03:03.678Z,6.60
2023-02-02T06:05:30.477Z,6.70
2023-02-02T06:07:57.208Z,6.70
2023-02-02T06:10:23.831Z,6.60
2023-02-02T06:12:50.886Z,6.60
2023-02-02T06:15:17.484Z,6.70
2023-02-02T06:17:44.141Z,6.70
2023-02-02T06:20:11.072Z,6.70
2023-02-02T06:22:37.982Z,6.70
2023-02-02T06:25:05.579Z,6.70
2023-02-02T06:27:32.215Z,6.70
2023-02-02T06:29:59.000Z,6.70
2023-02-02T06:32:25.670Z,6.70
2023-02-02T06:34:52.339Z,6.80
2023-02-02T06:37:19.375Z,6.80
2023-02-02T06:39:46.121Z,6.80
2023-02-02T06:42:21.370Z,6.80
2023-02-02T06:44:48.700Z,6.80
2023-02-02T06:47:15.412Z,6.90
2023-02-02T06:49:42.736Z,6.90
2023-02-02T06:52:09.391Z,6.90
2023-02-02T06:54:36.102Z,6.90
2023-02-02T06:57:02.838Z,6.90
2023-02-02T06:59:29.678Z,6.90
2023-02-02T07:01:56.643Z,6.90
2023-02-02T07:04:23.332Z,7.00
2023-02-02T07:06:50.076Z,7.00
2023-02-02T07:09:16.885Z,7.00
2023-02-02T07:11:44.736Z,7.00
2023-02-02T07:14:12.647Z,7.00
2023-02-02T07:16:39.312Z,7.00
2023-02-02T07:19:06.100Z,7.00
2023-02-02T07:21:36.450Z,7.00
2023-02-02T07:24:04.044Z,7.10
2023-02-02T07:26:30.755Z,7.10
2023-02-02T07:28:57.529Z,7.10
2023-02-02T07:31:25.640Z,7.10
2023-02-02T07:33:52.654Z,7.10
2023-02-02T07:36:20.378Z,7.10
2023-02-02T07:38:47.817Z,7.10
2023-02-02T07:41:15.201Z,7.10
2023-02-02T07:43:42.325Z,7.10
2023-02-02T07:46:10.332Z,7.10
2023-02-02T07:48:37.036Z,7.10
2023-02-02T07:51:08.462Z,7.10
2023-02-02T07:53:35.623Z,7.10
2023-02-02T07:56:13.136Z,7.20
2023-02-02T07:58:40.244Z,7.20
2023-02-02T08:01:08.509Z,7.20
2023-02-02T08:03:36.018Z,7.20
2023-02-02T08:06:08.630Z,7.20
2023-02-02T08:08:35.312Z,7.20
2023-02-02T08:11:01.907Z,7.20
2023-02-02T08:13:28.635Z,7.20
2023-02-02T08:15:57.794Z,7.20
2023-02-02T08:18:24.591Z,7.20
2023-02-02T08:20:52.592Z,7.30
2023-02-02T08:23:23.452Z,7.30
2023-02-02T08:25:50.609Z,7.30
2023-02-02T08:28:17.895Z,7.30
2023-02-02T08:30:44.597Z,7.30
2023-02-02T08:33:11.263Z,7.30
2023-02-02T08:35:41.933Z,7.40
2023-02-02T08:38:08.636Z,7.40
2023-02-02T08:40:35.427Z,7.40
2023-02-02T08:43:04.076Z,7.40
2023-02-02T08:46:02.075Z,7.40
2023-02-02T08:48:19.877Z,7.40
2023-02-02T08:50:52.114Z,7.40
2023-02-02T08:53:18.934Z,7.50
2023-02-02T08:55:45.530Z,7.50
2023-02-02T08:58:12.678Z,7.50
2023-02-02T09:00:39.467Z,7.50
2023-02-02T09:03:06.347Z,7.50
2023-02-02T09:05:33.091Z,7.50
2023-02-02T09:07:59.729Z,7.50
2023-02-02T09:10:26.306Z,7.30
2023-02-02T09:12:53.066Z,7.20
2023-02-02T09:15:19.810Z,7.00
2023-02-02T09:17:46.518Z,6.90
2023-02-02T09:20:13.302Z,6.80
2023-02-02T09:22:39.972Z,6.70
2023-02-02T09:25:06.856Z,6.60
2023-02-02T09:27:37.074Z,6.60
2023-02-02T09:30:04.441Z,6.50
2023-02-02T09:32:31.220Z,6.50
2023-02-02T09:34:58.099Z,6.50
2023-02-02T09:37:26.546Z,6.50
2023-02-02T09:39:53.612Z,6.40
2023-02-02T09:42:23.043Z,6.40
2023-02-02T09:44:58.636Z,6.30
2023-02-02T09:47:32.233Z,6.30
2023-02-02T09:50:04.934Z,6.30
2023-02-02T09:52:46.178Z,6.30
2023-02-02T09:55:15.904Z,6.20
2023-02-02T09:57:45.764Z,6.20
2023-02-02T10:00:38.900Z,6.30
2023-02-02T10:03:24.752Z,6.30
2023-02-02T10:05:57.468Z,6.30
2023-02-02T10:08:36.200Z,6.30
2023-02-02T10:11:07.746Z,6.30
2023-02-02T10:13:38.060Z,6.40
2023-02-02T10:16:14.514Z,6.40
2023-02-02T10:18:56.914Z,6.40
2023-02-02T10:21:35.627Z,6.40
2023-02-02T10:24:02.776Z,6.50
2023-02-02T10:26:39.871Z,6.50
2023-02-02T10:29:12.487Z,6.50
2023-02-02T10:31:58.326Z,6.50
2023-02-02T10:34:37.474Z,6.50
2023-02-02T10:37:10.375Z,6.60
2023-02-02T10:39:43.627Z,6.60
2023-02-02T10:42:28.986Z,6.60
2023-02-02T10:45:16.050Z,6.70
2023-02-02T10:47:43.157Z,6.70
2023-02-02T10:50:12.940Z,6.70
2023-02-02T10:52:41.709Z,6.70
2023-02-02T10:55:08.432Z,6.70
2023-02-02T10:57:35.182Z,6.70
2023-02-02T11:00:10.917Z,6.80
2023-02-02T11:02:37.673Z,6.80
2023-02-02T11:05:23.237Z,6.70
2023-02-02T11:07:51.548Z,6.70
2023-02-02T11:10:18.347Z,6.70
2023-02-02T11:12:46.828Z,6.70
2023-02-02T11:15:26.127Z,6.70
2023-02-02T11:17:53.038Z,6.70
2023-02-02T11:20:34.045Z,6.70
2023-02-02T11:23:04.578Z,6.70
2023-02-02T11:25:36.157Z,6.70
2023-02-02T11:28:18.720Z,6.70
2023-02-02T11:30:52.254Z,6.70
2023-02-02T11:33:25.269Z,6.70
2023-02-02T11:35:53.327Z,6.70
2023-02-02T11:38:21.319Z,6.70
2023-02-02T11:40:56.790Z,6.70
2023-02-02T11:43:26.459Z,6.70
2023-02-02T11:46:16.494Z,6.70
2023-02-02T11:48:48.723Z,6.80
2023-02-02T11:51:22.600Z,6.70
2023-02-02T11:53:49.908Z,6.70
2023-02-02T11:56:21.623Z,6.80
2023-02-02T11:58:52.690Z,6.80
2023-02-02T12:01:29.972Z,6.80
2023-02-02T12:03:58.241Z,6.80
2023-02-02T12:06:38.354Z,6.80
2023-02-02T12:09:12.879Z,6.80
2023-02-02T12:11:46.162Z,6.80
2023-02-02T12:14:32.087Z,6.90
2023-02-02T12:17:17.687Z,6.90
2023-02-02T12:20:03.383Z,6.90
2023-02-02T12:22:41.602Z,6.90
2023-02-02T12:25:14.707Z,6.90
2023-02-02T12:27:55.141Z,6.90
2023-02-02T12:30:27.925Z,6.80
2023-02-02T12:33:04.066Z,6.80
2023-02-02T12:35:30.862Z,6.80
2023-02-02T12:37:57.564Z,6.80
2023-02-02T12:40:43.031Z,6.80
2023-02-02T12:43:23.390Z,6.80
2023-02-02T12:45:54.348Z,6.80
2023-02-02T12:48:32.701Z,6.80
2023-02-02T12:51:08.351Z,6.80
2023-02-02T12:53:38.162Z,6.80
2023-02-02T12:56:23.372Z,6.80
2023-02-02T12:58:50.155Z,6.80
2023-02-02T13:01:31.197Z,6.80
2023-02-02T13:04:16.270Z,6.70
2023-02-02T13:07:04.201Z,6.70
2023-02-02T13:09:41.294Z,6.70
2023-02-02T13:12:08.099Z,6.70
2023-02-02T13:14:41.785Z,6.80
2023-02-02T13:17:28.884Z,6.80
2023-02-02T13:19:57.837Z,6.80
2023-02-02T13:22:26.816Z,6.90
2023-02-02T13:24:55.637Z,6.90
2023-02-02T13:27:23.617Z,6.90
2023-02-02T13:30:09.182Z,6.90
2023-02-02T13:32:41.693Z,6.90
2023-02-02T13:35:21.398Z,6.90
2023-02-02T13:38:01.231Z,6.90
2023-02-02T13:40:27.921Z,6.90
2023-02-02T13:42:59.795Z,6.90
2023-02-02T13:45:35.356Z,6.90
2023-02-02T13:48:25.467Z,6.90
2023-02-02T13:51:03.068Z,6.90
2023-02-02T13:53:30.085Z,6.90
2023-02-02T13:55:59.671Z,6.80
2023-02-02T13:58:37.925Z,6.80
2023-02-02T14:01:09.180Z,6.80
2023-02-02T14:03:43.136Z,6.80
2023-02-02T14:06:17.367Z,6.80
2023-02-02T14:08:58.243Z,6.80
2023-02-02T14:11:30.545Z,6.80
2023-02-02T14:14:28.308Z,6.90
2023-02-02T14:16:56.649Z,6.90
2023-02-02T14:19:35.936Z,6.90
2023-02-02T14:22:23.040Z,7.00
2023-02-02T14:24:51.129Z,7.00
2023-02-02T14:27:18.257Z,7.00
2023-02-02T14:29:46.713Z,7.10
2023-02-02T14:32:29.551Z,7.20
2023-02-02T14:35:00.689Z,7.20
2023-02-02T14:37:27.450Z,7.30
2023-02-02T14:40:16.955Z,7.40
2023-02-02T14:43:21.731Z,7.40
2023-02-02T14:45:50.841Z,7.40
2023-02-02T14:48:25.147Z,7.50
2023-02-02T14:50:53.539Z,7.50
2023-02-02T14:53:22.780Z,7.50
2023-02-02T14:55:55.793Z,7.50
2023-02-02T14:58:25.557Z,7.50
2023-02-02T15:00:57.307Z,7.60
2023-02-02T15:03:35.231Z,7.60
2023-02-02T15:06:22.469Z,7.60
2023-02-02T15:09:07.945Z,7.60
2023-02-02T15:11:54.649Z,7.60
2023-02-02T15:14:23.269Z,7.60
2023-02-02T15:16:50.028Z,7.60
2023-02-02T15:19:22.191Z,7.70
2023-02-02T15:21:54.599Z,7.70
2023-02-02T15:24:24.604Z,7.70
2023-02-02T15:26:54.514Z,7.70
2023-02-02T15:29:33.433Z,7.70
2023-02-02T15:32:00.558Z,7.70
2023-02-02T15:34:33.034Z,7.70
2023-02-02T15:37:00.796Z,7.70
2023-02-02T15:39:27.516Z,7.70
2023-02-02T15:42:16.958Z,7.70
2023-02-02T15:44:44.017Z,7.70
2023-02-02T15:47:18.565Z,7.70
2023-02-02T15:49:46.128Z,7.70
2023-02-02T15:52:14.278Z,7.70
2023-02-02T15:54:48.943Z,7.70
2023-02-02T15:57:24.930Z,7.70
2023-02-02T15:59:51.806Z,7.70
2023-02-02T16:02:18.652Z,7.70
2023-02-02T16:04:45.522Z,7.70
2023-02-02T16:07:14.340Z,7.70
2023-02-02T16:09:41.802Z,7.70
2023-02-02T16:12:18.533Z,7.70
2023-02-02T16:14:50.509Z,7.70
2023-02-02T16:17:21.917Z,7.70
2023-02-02T16:19:56.500Z,7.70
2023-02-02T16:22:25.317Z,7.70
2023-02-02T16:24:55.570Z,7.70
2023-02-02T16:27:24.553Z,7.70
2023-02-02T16:29:51.662Z,7.70
2023-02-02T16:32:47.862Z,7.70
2023-02-02T16:35:31.781Z,7.70
2023-02-02T16:38:13.818Z,7.70
2023-02-02T16:40:40.688Z,7.70
2023-02-02T16:43:15.901Z,7.70
2023-02-02T16:45:45.851Z,7.70
2023-02-02T16:48:27.345Z,7.70
2023-02-02T16:51:03.647Z,7.70
2023-02-02T16:53:30.753Z,7.70
2023-02-02T16:55:58.010Z,7.80
2023-02-02T16:58:25.232Z,7.80
2023-02-02T17:01:02.193Z,7.80
2023-02-02T17:03:33.868Z,7.80
2023-02-02T17:06:00.805Z,7.80
2023-02-02T17:08:35.567Z,7.80
2023-02-02T17:11:04.308Z,7.80
2023-02-02T17:13:30.913Z,7.80
2023-02-02T17:15:58.076Z,7.80
2023-02-02T17:18:24.785Z,7.80
2023-02-02T17:20:57.644Z,7.80
2023-02-02T17:23:26.489Z,7.80
2023-02-02T17:25:53.569Z,7.80
2023-02-02T17:28:21.684Z,7.80
2023-02-02T17:31:02.801Z,7.80
2023-02-02T17:33:34.249Z,7.80
2023-02-02T17:36:01.016Z,7.80
2023-02-02T17:38:27.929Z,7.90
2023-02-02T17:40:55.386Z,7.80
2023-02-02T17:43:22.079Z,7.80
2023-02-02T17:45:50.440Z,7.80
2023-02-02T17:48:18.372Z,7.90
2023-02-02T17:50:45.098Z,7.90
2023-02-02T17:53:13.248Z,7.80
2023-02-02T17:55:41.842Z,7.80
2023-02-02T17:58:09.167Z,7.80
2023-02-02T18:00:36.178Z,7.80
2023-02-02T18:03:08.932Z,7.80
2023-02-02T18:05:37.450Z,7.80
2023-02-02T18:08:07.057Z,7.80
2023-02-02T18:10:33.944Z,7.80
2023-02-02T18:13:00.913Z,7.80
2023-02-02T18:15:30.528Z,7.80
2023-02-02T18:18:04.896Z,7.80
2023-02-02T18:20:31.719Z,7.80
2023-02-02T18:22:58.714Z,7.80
2023-02-02T18:25:26.188Z,7.80
2023-02-02T18:27:57.495Z,7.80
2023-02-02T18:30:27.121Z,7.80
2023-02-02T18:32:56.487Z,7.80
2023-02-02T18:35:23.883Z,7.80
2023-02-02T18:37:51.778Z,7.80
2023-02-02T18:40:18.559Z,7.80
2023-02-02T18:42:46.579Z,7.80
2023-02-02T18:45:13.495Z,7.80
2023-02-02T18:47:41.488Z,7.80
2023-02-02T18:50:08.816Z,7.80
2023-02-02T18:52:35.596Z,7.80
2023-02-02T18:55:02.382Z,7.80
2023-02-02T18:57:29.257Z,7.80
2023-02-02T18:59:56.008Z,7.80
2023-02-02T19:02:22.790Z,7.80
2023-02-02T19:05:08.169Z,7.80
2023-02-02T19:07:53.739Z,7.80
2023-02-02T19:10:22.989Z,7.80
2023-02-02T19:12:53.058Z,7.90
2023-02-02T19:15:19.895Z,7.80
2023-02-02T19:17:47.212Z,7.80
2023-02-02T19:20:25.403Z,7.80
2023-02-02T19:22:54.942Z,7.90
2023-02-02T19:25:21.778Z,7.90
2023-02-02T19:27:48.757Z,7.90
2023-02-02T19:30:18.215Z,7.90
2023-02-02T19:32:45.491Z,7.90
2023-02-02T19:35:17.770Z,7.90
2023-02-02T19:37:46.558Z,7.90
2023-02-02T19:40:14.801Z,7.90
2023-02-02T19:42:45.937Z,7.90
2023-02-02T19:45:32.035Z,7.90
2023-02-02T19:48:00.295Z,7.90
2023-02-02T19:50:29.422Z,7.90
2023-02-02T19:52:56.339Z,7.90
2023-02-02T19:55:27.744Z,8.00
2023-02-02T19:57:59.638Z,7.90
2023-02-02T20:00:28.228Z,7.90
2023-02-02T20:02:58.901Z,8.00
2023-02-02T20:05:28.188Z,8.00
2023-02-02T20:08:20.800Z,8.00
2023-02-02T20:10:47.537Z,8.00
2023-02-02T20:13:32.898Z,8.00
2023-02-02T20:16:04.303Z,8.00
2023-02-02T20:18:34.654Z,8.00
2023-02-02T20:21:02.656Z,8.10
2023-02-02T20:23:42.864Z,8.00
2023-02-02T20:26:26.026Z,8.10
2023-02-02T20:29:00.848Z,8.10
2023-02-02T20:31:34.506Z,8.10
2023-02-02T20:34:01.246Z,8.10
2023-02-02T20:36:28.148Z,8.10
2023-02-02T20:38:55.198Z,8.10
2023-02-02T20:41:28.762Z,8.10
2023-02-02T20:43:56.376Z,8.10
2023-02-02T20:46:23.026Z,8.10
2023-02-02T20:48:49.818Z,8.10
2023-02-02T20:51:16.813Z,8.10
2023-02-02T20:53:43.648Z,8.10
2023-02-02T20:56:10.254Z,8.10
2023-02-02T20:58:37.122Z,8.10
2023-02-02T21:01:05.451Z,8.20
2023-02-02T21:03:32.792Z,8.20
2023-02-02T21:05:59.995Z,8.20
2023-02-02T21:08:26.796Z,8.20
2023-02-02T21:10:53.521Z,8.20
2023-02-02T21:13:20.197Z,8.20
2023-02-02T21:15:46.929Z,8.20
2023-02-02T21:18:14.132Z,8.20
2023-02-02T21:20:40.825Z,8.20
2023-02-02T21:23:09.739Z,8.20
2023-02-02T21:25:36.377Z,8.20
2023-02-02T21:28:03.343Z,8.20
2023-02-02T21:30:30.381Z,8.30
2023-02-02T21:32:57.998Z,8.30
2023-02-02T21:35:38.104Z,8.30
2023-02-02T21:38:07.420Z,8.30
2023-02-02T21:40:34.656Z,8.30
2023-02-02T21:43:05.835Z,8.30
2023-02-02T21:45:34.325Z,8.30
2023-02-02T21:48:02.209Z,8.30
2023-02-02T21:50:31.658Z,8.30
2023-02-02T21:53:13.052Z,8.40
2023-02-02T21:55:39.945Z,8.40
2023-02-02T21:58:15.965Z,8.40
2023-02-02T22:00:42.809Z,8.40
2023-02-02T22:03:28.421Z,8.40
2023-02-02T22:06:23.887Z,8.40
2023-02-02T22:08:51.419Z,8.50
2023-02-02T22:11:29.347Z,8.50
2023-02-02T22:13:58.456Z,8.50
2023-02-02T22:16:25.420Z,8.50
2023-02-02T22:18:52.187Z,8.50
2023-02-02T22:21:21.013Z,8.50
2023-02-02T22:23:48.127Z,8.50
2023-02-02T22:26:30.196Z,8.50
2023-02-02T22:28:56.991Z,8.50
2023-02-02T22:31:23.782Z,8.50
2023-02-02T22:33:50.777Z,8.50
2023-02-02T22:36:18.555Z,8.60
2023-02-02T22:38:45.574Z,8.50
2023-02-02T22:41:12.348Z,8.60
2023-02-02T22:43:39.159Z,8.50
2023-02-02T22:46:05.927Z,8.60
2023-02-02T22:48:32.765Z,8.60
2023-02-02T22:50:59.373Z,8.60
2023-02-02T22:53:26.051Z,8.60
2023-02-02T22:55:56.552Z,8.60
2023-02-02T22:58:24.399Z,8.60
2023-02-02T23:00:51.209Z,8.60
2023-02-02T23:03:17.863Z,8.60
2023-02-02T23:05:44.643Z,8.60
2023-02-02T23:08:11.408Z,8.60
2023-02-02T23:10:38.247Z,8.60
2023-02-02T23:13:05.843Z,8.60
2023-02-02T23:15:33.108Z,8.60
2023-02-02T23:17:59.896Z,8.60
2023-02-02T23:20:27.736Z,8.60
2023-02-02T23:22:54.630Z,8.60
2023-02-02T23:25:21.984Z,8.60
2023-02-02T23:27:49.097Z,8.60
2023-02-02T23:30:15.812Z,8.60
2023-02-02T23:32:42.625Z,8.60
2023-02-02T23:35:10.948Z,8.60
2023-02-02T23:37:37.986Z,8.60
2023-02-02T23:40:04.966Z,8.60
2023-02-02T23:42:32.177Z,8.60
2023-02-02T23:44:59.044Z,8.60
2023-02-02T23:47:26.059Z,8.60
2023-02-02T23:49:52.939Z,8.60
2023-02-02T23:52:19.893Z,8.60
2023-02-02T23:54:46.881Z,8.60
2023-02-02T23:57:13.595Z,8.60
2023-02-02T23:59:40.696Z,8.60
